createdAt,value
2023-05-06T00:00:30.443Z,101672.50
2023-05-06T00:01:01.895Z,101673.28
2023-05-06T00:01:33.655Z,101668.63
2023-05-06T00:02:05.231Z,101675.22
2023-05-06T00:02:37.110Z,101674.44
2023-05-06T00:03:10.111Z,101676.38
2023-05-06T00:03:41.888Z,101673.66
2023-05-06T00:04:15.486Z,101676.75
2023-05-06T00:04:47.602Z,101666.59
2023-05-06T00:05:19.188Z,101674.00
2023-05-06T00:05:50.771Z,101669.34
2023-05-06T00:06:22.366Z,101662.28
2023-05-06T00:06:54.198Z,101666.97
2023-05-06T00:07:25.631Z,101663.44
2023-05-06T00:07:57.186Z,101665.38
2023-05-06T00:08:28.639Z,101666.53
2023-05-06T00:09:00.643Z,101661.44
2023-05-06T00:09:32.050Z,101666.91
2023-05-06T00:10:04.227Z,101666.09
2023-05-06T00:10:35.629Z,101668.03
2023-05-06T00:11:07.003Z,101670.00
2023-05-06T00:11:38.385Z,101669.19
2023-05-06T00:12:10.044Z,101666.47
2023-05-06T00:12:41.578Z,101660.56
2023-05-06T00:13:13.340Z,101669.13
2023-05-06T00:13:45.186Z,101669.13
2023-05-06T00:14:17.005Z,101673.81
2023-05-06T00:14:48.378Z,101669.91
2023-05-06T00:15:19.829Z,101668.34
2023-05-06T00:15:51.243Z,101669.13
2023-05-06T00:16:23.177Z,101670.72
2023-05-06T00:16:54.881Z,101669.91
2023-05-06T00:17:26.406Z,101669.13
2023-05-06T00:17:58.021Z,101673.44
2023-05-06T00:18:29.685Z,101671.50
2023-05-06T00:19:01.409Z,101672.28
2023-05-06T00:19:33.353Z,101673.44
2023-05-06T00:20:06.353Z,101667.97
2023-05-06T00:20:37.759Z,101667.97
2023-05-06T00:21:09.366Z,101675.38
2023-05-06T00:21:40.769Z,101676.97
2023-05-06T00:22:12.194Z,101660.94
2023-05-06T00:22:43.516Z,101669.13
2023-05-06T00:23:15.214Z,101671.84
2023-05-06T00:23:46.606Z,101669.91
2023-05-06T00:24:17.971Z,101675.81
2023-05-06T00:24:49.337Z,101670.72
2023-05-06T00:25:21.058Z,101669.91
2023-05-06T00:25:53.910Z,101673.44
2023-05-06T00:26:25.609Z,101672.66
2023-05-06T00:26:58.423Z,101671.50
2023-05-06T00:27:29.818Z,101671.50
2023-05-06T00:28:01.281Z,101670.72
2023-05-06T00:28:33.292Z,101671.50
2023-05-06T00:29:04.704Z,101673.06
2023-05-06T00:29:36.054Z,101677.75
2023-05-06T00:30:08.191Z,101667.97
2023-05-06T00:30:39.635Z,101661.38
2023-05-06T00:31:11.108Z,101663.31
2023-05-06T00:31:42.518Z,101669.56
2023-05-06T00:32:13.939Z,101668.78
2023-05-06T00:32:45.463Z,101666.81
2023-05-06T00:33:16.872Z,101673.06
2023-05-06T00:33:48.252Z,101662.16
2023-05-06T00:34:19.655Z,101670.34
2023-05-06T00:34:51.082Z,101669.56
2023-05-06T00:35:22.503Z,101663.66
2023-05-06T00:35:53.923Z,101664.47
2023-05-06T00:36:25.581Z,101667.63
2023-05-06T00:36:56.997Z,101666.81
2023-05-06T00:37:28.383Z,101664.88
2023-05-06T00:38:12.772Z,101668.78
2023-05-06T00:38:44.190Z,101661.38
2023-05-06T00:39:16.283Z,101672.28
2023-05-06T00:39:47.663Z,101664.09
2023-05-06T00:40:19.061Z,101664.53
2023-05-06T00:40:50.826Z,101658.28
2023-05-06T00:41:22.202Z,101664.53
2023-05-06T00:41:53.626Z,101652.81
2023-05-06T00:42:25.280Z,101667.63
2023-05-06T00:42:56.983Z,101662.59
2023-05-06T00:43:28.351Z,101664.16
2023-05-06T00:43:59.754Z,101660.66
2023-05-06T00:44:31.885Z,101668.03
2023-05-06T00:45:04.057Z,101664.53
2023-05-06T00:45:35.785Z,101661.00
2023-05-06T00:46:10.772Z,101659.84
2023-05-06T00:46:43.041Z,101655.53
2023-05-06T00:47:14.980Z,101659.06
2023-05-06T00:47:46.498Z,101651.22
2023-05-06T00:48:18.617Z,101655.53
2023-05-06T00:48:50.479Z,101652.03
2023-05-06T00:49:22.287Z,101659.44
2023-05-06T00:49:54.269Z,101655.13
2023-05-06T00:50:28.185Z,101665.25
2023-05-06T00:50:59.638Z,101656.25
2023-05-06T00:51:31.511Z,101660.94
2023-05-06T00:52:03.692Z,101665.59
2023-05-06T00:52:35.519Z,101669.91
2023-05-06T00:53:09.605Z,101665.25
2023-05-06T00:53:41.418Z,101666.03
2023-05-06T00:54:13.284Z,101662.50
2023-05-06T00:54:44.992Z,101664.47
2023-05-06T00:55:16.957Z,101660.94
2023-05-06T00:55:49.553Z,101658.22
2023-05-06T00:56:21.222Z,101665.59
2023-05-06T00:56:53.435Z,101663.66
2023-05-06T00:57:25.106Z,101664.47
2023-05-06T00:57:57.201Z,101657.84
2023-05-06T00:58:28.670Z,101666.03
2023-05-06T00:59:01.033Z,101665.25
2023-05-06T00:59:32.463Z,101665.25
2023-05-06T01:00:07.082Z,101663.31
2023-05-06T01:00:38.625Z,101666.03
2023-05-06T01:01:10.453Z,101669.56
2023-05-06T01:01:42.106Z,101663.31
2023-05-06T01:02:13.633Z,101663.31
2023-05-06T01:02:47.870Z,101661.72
2023-05-06T01:03:19.689Z,101662.16
2023-05-06T01:03:55.100Z,101651.22
2023-05-06T01:04:29.066Z,101662.94
2023-05-06T01:05:00.830Z,101665.69
2023-05-06T01:05:41.631Z,101654.31
2023-05-06T01:06:23.853Z,101655.91
2023-05-06T01:07:12.340Z,101655.13
2023-05-06T01:07:56.988Z,101660.56
2023-05-06T01:08:48.212Z,101653.53
2023-05-06T01:09:22.651Z,101655.13
2023-05-06T01:10:04.734Z,101654.31
2023-05-06T01:10:47.278Z,101652.75
2023-05-06T01:11:37.708Z,101653.53
2023-05-06T01:12:29.386Z,101653.09
2023-05-06T01:13:32.957Z,101653.09
2023-05-06T01:14:26.814Z,101650.38
2023-05-06T01:15:36.828Z,101654.66
2023-05-06T01:16:10.245Z,101652.69
2023-05-06T01:16:42.222Z,101652.69
2023-05-06T01:17:18.359Z,101648.00
2023-05-06T01:17:52.693Z,101648.00
2023-05-06T01:18:27.271Z,101654.25
2023-05-06T01:19:00.250Z,101646.06
2023-05-06T01:19:49.245Z,101643.34
2023-05-06T01:20:21.590Z,101644.91
2023-05-06T01:20:54.746Z,101642.19
2023-05-06T01:21:35.257Z,101644.91
2023-05-06T01:22:07.722Z,101639.06
2023-05-06T01:22:39.743Z,101643.34
2023-05-06T01:23:12.970Z,101646.06
2023-05-06T01:23:55.916Z,101650.72
2023-05-06T01:24:41.377Z,101644.50
2023-05-06T01:25:22.483Z,101642.53
2023-05-06T01:25:53.825Z,101648.00
2023-05-06T01:26:25.742Z,101650.72
2023-05-06T01:26:57.175Z,101644.50
2023-05-06T01:27:28.983Z,101647.25
2023-05-06T01:28:00.421Z,101649.97
2023-05-06T01:28:31.797Z,101642.94
2023-05-06T01:29:03.904Z,101651.13
2023-05-06T01:29:38.260Z,101644.88
2023-05-06T01:30:10.091Z,101641.34
2023-05-06T01:30:53.601Z,101641.72
2023-05-06T01:31:42.983Z,101647.16
2023-05-06T01:32:21.702Z,101637.41
2023-05-06T01:33:04.184Z,101639.34
2023-05-06T01:34:18.395Z,101639.69
2023-05-06T01:35:00.371Z,101635.75
2023-05-06T01:35:54.259Z,101628.72
2023-05-06T01:36:45.617Z,101624.41
2023-05-06T01:37:34.739Z,101635.69
2023-05-06T01:38:16.194Z,101623.19
2023-05-06T01:39:12.203Z,101633.31
2023-05-06T01:39:46.017Z,101636.81
2023-05-06T01:40:18.517Z,101636.03
2023-05-06T01:40:54.876Z,101629.34
2023-05-06T01:41:27.893Z,101626.63
2023-05-06T01:42:01.942Z,101627.78
2023-05-06T01:42:35.242Z,101635.97
2023-05-06T01:43:07.660Z,101629.72
2023-05-06T01:43:42.949Z,101633.63
2023-05-06T01:44:15.298Z,101632.03
2023-05-06T01:44:48.943Z,101640.59
2023-05-06T01:45:21.968Z,101632.41
2023-05-06T01:45:55.893Z,101636.28
2023-05-06T01:46:29.877Z,101633.19
2023-05-06T01:47:01.937Z,101635.50
2023-05-06T01:47:34.355Z,101635.50
2023-05-06T01:48:06.807Z,101641.31
2023-05-06T01:48:39.860Z,101640.53
2023-05-06T01:49:11.820Z,101635.06
2023-05-06T01:49:43.612Z,101634.28
2023-05-06T01:50:15.614Z,101637.00
2023-05-06T01:50:47.204Z,101640.09
2023-05-06T01:51:18.599Z,101632.69
2023-05-06T01:51:52.833Z,101636.56
2023-05-06T01:52:26.136Z,101643.19
2023-05-06T01:53:02.722Z,101641.25
2023-05-06T01:53:34.304Z,101634.19
2023-05-06T01:54:05.909Z,101630.69
2023-05-06T01:54:37.287Z,101635.34
2023-05-06T01:55:09.258Z,101635.69
2023-05-06T01:55:40.981Z,101641.94
2023-05-06T01:56:12.918Z,101637.63
2023-05-06T01:56:44.301Z,101638.78
2023-05-06T01:57:16.057Z,101638.00
2023-05-06T01:57:47.666Z,101636.41
2023-05-06T01:58:19.175Z,101636.41
2023-05-06T01:58:50.821Z,101633.69
2023-05-06T01:59:24.688Z,101639.94
2023-05-06T01:59:56.063Z,101635.63
2023-05-06T02:00:27.487Z,101640.28
2023-05-06T02:00:58.877Z,101635.19
2023-05-06T02:01:30.456Z,101645.31
2023-05-06T02:02:01.968Z,101639.88
2023-05-06T02:02:33.602Z,101646.50
2023-05-06T02:03:05.472Z,101644.56
2023-05-06T02:03:37.524Z,101642.97
2023-05-06T02:04:09.168Z,101642.97
2023-05-06T02:04:40.731Z,101639.47
2023-05-06T02:05:12.112Z,101638.66
2023-05-06T02:05:43.481Z,101644.13
2023-05-06T02:06:14.874Z,101648.00
2023-05-06T02:06:46.400Z,101640.59
2023-05-06T02:07:18.143Z,101640.97
2023-05-06T02:07:49.507Z,101646.41
2023-05-06T02:08:21.167Z,101646.41
2023-05-06T02:08:52.543Z,101640.19
2023-05-06T02:09:24.132Z,101641.31
2023-05-06T02:09:55.565Z,101644.41
2023-05-06T02:10:26.993Z,101646.00
2023-05-06T02:10:58.438Z,101645.56
2023-05-06T02:11:29.877Z,101640.88
2023-05-06T02:12:01.761Z,101642.03
2023-05-06T02:12:33.515Z,101639.31
2023-05-06T02:13:05.173Z,101641.25
2023-05-06T02:13:36.717Z,101642.41
2023-05-06T02:14:08.340Z,101639.22
2023-05-06T02:14:39.695Z,101640.81
2023-05-06T02:15:11.547Z,101648.56
2023-05-06T02:15:43.062Z,101641.16
2023-05-06T02:16:14.857Z,101648.56
2023-05-06T02:16:46.551Z,101645.84
2023-05-06T02:17:17.997Z,101644.25
2023-05-06T02:17:49.477Z,101648.13
2023-05-06T02:18:21.071Z,101653.59
2023-05-06T02:18:52.614Z,101650.06
2023-05-06T02:19:23.989Z,101653.59
2023-05-06T02:19:55.469Z,101652.78
2023-05-06T02:20:27.171Z,101648.50
2023-05-06T02:20:58.830Z,101655.88
2023-05-06T02:21:30.335Z,101653.16
2023-05-06T02:22:01.736Z,101651.56
2023-05-06T02:22:33.102Z,101651.56
2023-05-06T02:23:04.482Z,101655.47
2023-05-06T02:23:35.858Z,101653.50
2023-05-06T02:24:07.443Z,101660.13
2023-05-06T02:24:38.937Z,101651.97
2023-05-06T02:25:10.886Z,101658.56
2023-05-06T02:25:42.849Z,101660.50
2023-05-06T02:26:14.256Z,101657.34
2023-05-06T02:26:45.683Z,101649.94
2023-05-06T02:27:17.041Z,101656.53
2023-05-06T02:27:48.467Z,101655.75
2023-05-06T02:28:19.867Z,101660.06
2023-05-06T02:28:51.322Z,101653.03
2023-05-06T02:29:22.755Z,101657.69
2023-05-06T02:29:54.304Z,101648.72
2023-05-06T02:30:25.663Z,101649.88
2023-05-06T02:30:57.869Z,101648.28
2023-05-06T02:31:29.387Z,101655.31
2023-05-06T02:32:01.009Z,101652.16
2023-05-06T02:32:32.522Z,101648.63
2023-05-06T02:33:04.111Z,101653.31
2023-05-06T02:33:36.072Z,101649.00
2023-05-06T02:34:08.848Z,101650.13
2023-05-06T02:34:40.247Z,101652.88
2023-05-06T02:35:11.819Z,101661.03
2023-05-06T02:35:43.525Z,101649.34
2023-05-06T02:36:14.999Z,101647.75
2023-05-06T02:36:46.461Z,101655.16
2023-05-06T02:37:17.824Z,101660.59
2023-05-06T02:37:49.500Z,101651.63
2023-05-06T02:38:21.467Z,101649.25
2023-05-06T02:38:52.940Z,101652.00
2023-05-06T02:39:24.457Z,101652.00
2023-05-06T02:39:55.817Z,101652.00
2023-05-06T02:40:27.402Z,101644.97
2023-05-06T02:40:58.824Z,101647.69
2023-05-06T02:41:30.177Z,101649.63
2023-05-06T02:42:02.512Z,101652.72
2023-05-06T02:42:34.864Z,101651.56
2023-05-06T02:43:06.335Z,101654.28
2023-05-06T02:43:37.917Z,101652.72
2023-05-06T02:44:09.326Z,101649.56
2023-05-06T02:44:40.834Z,101650.34
2023-05-06T02:45:12.542Z,101653.09
2023-05-06T02:45:44.015Z,101655.81
2023-05-06T02:46:15.847Z,101657.75
2023-05-06T02:46:47.373Z,101652.28
2023-05-06T02:47:18.865Z,101647.19
2023-05-06T02:47:50.361Z,101651.06
2023-05-06T02:48:21.781Z,101655.72
2023-05-06T02:48:53.206Z,101650.63
2023-05-06T02:49:24.654Z,101655.28
2023-05-06T02:49:56.217Z,101647.13
2023-05-06T02:50:27.606Z,101654.50
2023-05-06T02:50:59.857Z,101654.84
2023-05-06T02:51:32.008Z,101646.69
2023-05-06T02:52:03.627Z,101657.94
2023-05-06T02:52:35.076Z,101655.22
2023-05-06T02:53:06.495Z,101654.41
2023-05-06T02:53:37.924Z,101652.47
2023-05-06T02:54:09.366Z,101650.13
2023-05-06T02:54:41.130Z,101652.03
2023-05-06T02:55:12.570Z,101652.41
2023-05-06T02:55:43.994Z,101647.75
2023-05-06T02:56:15.455Z,101651.59
2023-05-06T02:56:46.827Z,101650.81
2023-05-06T02:57:18.513Z,101650.03
2023-05-06T02:57:49.919Z,101646.50
2023-05-06T02:58:21.342Z,101646.50
2023-05-06T02:58:53.372Z,101647.66
2023-05-06T02:59:24.851Z,101647.66
2023-05-06T02:59:56.262Z,101643.00
2023-05-06T03:00:27.619Z,101644.13
2023-05-06T03:00:59.277Z,101649.97
2023-05-06T03:01:31.046Z,101650.75
2023-05-06T03:02:02.807Z,101649.97
2023-05-06T03:02:34.373Z,101651.13
2023-05-06T03:03:05.819Z,101656.56
2023-05-06T03:03:37.398Z,101654.63
2023-05-06T03:04:08.987Z,101653.84
2023-05-06T03:04:40.561Z,101649.53
2023-05-06T03:05:12.239Z,101656.13
2023-05-06T03:05:43.848Z,101650.69
2023-05-06T03:06:15.293Z,101651.81
2023-05-06T03:06:46.632Z,101657.28
2023-05-06T03:07:17.988Z,101642.06
2023-05-06T03:07:49.389Z,101654.09
2023-05-06T03:08:20.826Z,101650.59
2023-05-06T03:08:52.312Z,101651.38
2023-05-06T03:09:23.761Z,101649.81
2023-05-06T03:09:55.784Z,101659.91
2023-05-06T03:10:27.186Z,101652.53
2023-05-06T03:10:58.588Z,101657.53
2023-05-06T03:11:31.504Z,101660.72
2023-05-06T03:12:03.161Z,101654.47
2023-05-06T03:12:34.763Z,101657.53
2023-05-06T03:13:06.260Z,101649.38
2023-05-06T03:13:37.914Z,101648.56
2023-05-06T03:14:09.306Z,101649.72
2023-05-06T03:14:40.731Z,101648.13
2023-05-06T03:15:12.506Z,101652.78
2023-05-06T03:15:44.321Z,101659.84
2023-05-06T03:16:15.736Z,101651.22
2023-05-06T03:16:47.254Z,101646.91
2023-05-06T03:17:18.720Z,101646.91
2023-05-06T03:17:50.262Z,101645.69
2023-05-06T03:18:22.083Z,101649.19
2023-05-06T03:18:53.445Z,101642.94
2023-05-06T03:19:25.223Z,101636.72
2023-05-06T03:19:56.860Z,101641.38
2023-05-06T03:20:28.784Z,101637.09
2023-05-06T03:21:01.272Z,101632.41
2023-05-06T03:21:33.213Z,101637.41
2023-05-06T03:22:04.673Z,101639.03
2023-05-06T03:22:36.269Z,101634.69
2023-05-06T03:23:07.689Z,101638.56
2023-05-06T03:23:39.090Z,101635.84
2023-05-06T03:24:10.578Z,101635.84
2023-05-06T03:24:41.986Z,101636.97
2023-05-06T03:25:13.393Z,101642.41
2023-05-06T03:25:44.830Z,101635.38
2023-05-06T03:26:16.271Z,101640.84
2023-05-06T03:26:47.679Z,101633.81
2023-05-06T03:27:19.346Z,101633.03
2023-05-06T03:27:50.693Z,101631.44
2023-05-06T03:28:22.124Z,101630.66
2023-05-06T03:28:54.468Z,101638.81
2023-05-06T03:29:26.145Z,101641.53
2023-05-06T03:29:57.601Z,101634.50
2023-05-06T03:30:29.033Z,101635.31
2023-05-06T03:31:00.586Z,101641.53
2023-05-06T03:31:31.970Z,101638.03
2023-05-06T03:32:04.233Z,101639.97
2023-05-06T03:32:37.448Z,101641.09
2023-05-06T03:33:08.871Z,101643.84
2023-05-06T03:33:40.380Z,101643.38
2023-05-06T03:34:11.778Z,101637.16
2023-05-06T03:34:43.234Z,101645.31
2023-05-06T03:35:14.886Z,101644.53
2023-05-06T03:35:46.447Z,101642.94
2023-05-06T03:36:17.864Z,101637.50
2023-05-06T03:36:49.275Z,101638.66
2023-05-06T03:37:20.712Z,101646.03
2023-05-06T03:37:52.191Z,101639.78
2023-05-06T03:38:23.681Z,101640.13
2023-05-06T03:38:55.183Z,101639.00
2023-05-06T03:39:26.556Z,101643.66
2023-05-06T03:39:57.925Z,101638.56
2023-05-06T03:40:29.414Z,101638.19
2023-05-06T03:41:01.149Z,101640.13
2023-05-06T03:41:32.582Z,101638.56
2023-05-06T03:42:05.186Z,101637.00
2023-05-06T03:42:38.025Z,101638.16
2023-05-06T03:43:09.451Z,101636.22
2023-05-06T03:43:40.900Z,101641.66
2023-05-06T03:44:12.325Z,101648.25
2023-05-06T03:44:43.677Z,101643.16
2023-05-06T03:45:15.371Z,101643.94
2023-05-06T03:45:46.884Z,101643.94
2023-05-06T03:46:18.312Z,101640.44
2023-05-06T03:46:49.758Z,101647.81
2023-05-06T03:47:21.145Z,101640.00
2023-05-06T03:47:52.595Z,101646.22
2023-05-06T03:48:24.435Z,101650.88
2023-05-06T03:48:55.844Z,101653.59
2023-05-06T03:49:27.267Z,101646.56
2023-05-06T03:49:59.306Z,101649.31
2023-05-06T03:50:31.429Z,101648.50
2023-05-06T03:51:03.141Z,101647.72
2023-05-06T03:51:35.515Z,101645.34
2023-05-06T03:52:06.886Z,101646.94
2023-05-06T03:52:38.556Z,101646.94
2023-05-06T03:53:10.100Z,101646.94
2023-05-06T03:53:41.487Z,101646.13
2023-05-06T03:54:12.916Z,101646.13
2023-05-06T03:54:44.326Z,101647.28
2023-05-06T03:55:16.058Z,101646.50
2023-05-06T03:55:47.638Z,101646.50
2023-05-06T03:56:19.124Z,101650.78
2023-05-06T03:56:50.610Z,101646.50
2023-05-06T03:57:22.112Z,101650.34
2023-05-06T03:57:53.487Z,101647.28
2023-05-06T03:58:25.043Z,101641.84
2023-05-06T03:58:56.589Z,101651.94
2023-05-06T03:59:28.055Z,101651.94
2023-05-06T03:59:59.488Z,101651.94
2023-05-06T04:00:30.917Z,101642.63
2023-05-06T04:01:02.472Z,101647.28
2023-05-06T04:01:33.865Z,101646.94
2023-05-06T04:02:05.370Z,101646.94
2023-05-06T04:02:37.245Z,101646.94
2023-05-06T04:03:08.709Z,101648.06
2023-05-06T04:03:40.220Z,101642.63
2023-05-06T04:04:11.760Z,101645.34
2023-05-06T04:04:43.253Z,101644.56
2023-05-06T04:05:14.791Z,101644.56
2023-05-06T04:05:46.545Z,101647.28
2023-05-06T04:06:17.924Z,101646.50
2023-05-06T04:06:49.356Z,101644.13
2023-05-06T04:07:20.744Z,101648.41
2023-05-06T04:07:52.152Z,101643.31
2023-05-06T04:08:23.734Z,101646.03
2023-05-06T04:08:55.142Z,101650.34
2023-05-06T04:09:26.727Z,101650.34
2023-05-06T04:09:58.165Z,101647.63
2023-05-06T04:10:29.578Z,101650.00
2023-05-06T04:11:08.153Z,101649.22
2023-05-06T04:11:39.558Z,101650.00
2023-05-06T04:12:10.956Z,101649.22
2023-05-06T04:12:42.626Z,101651.94
2023-05-06T04:13:14.152Z,101651.16
2023-05-06T04:13:45.711Z,101653.53
2023-05-06T04:14:17.168Z,101660.91
2023-05-06T04:14:48.517Z,101651.16
2023-05-06T04:15:20.182Z,101651.94
2023-05-06T04:15:52.453Z,101650.00
2023-05-06T04:16:23.947Z,101656.25
2023-05-06T04:16:55.352Z,101650.00
2023-05-06T04:17:26.783Z,101650.78
2023-05-06T04:17:58.263Z,101650.78
2023-05-06T04:18:30.550Z,101648.06
2023-05-06T04:19:05.075Z,101646.13
2023-05-06T04:19:38.050Z,101645.00
2023-05-06T04:20:11.949Z,101649.66
2023-05-06T04:20:46.379Z,101644.56
2023-05-06T04:21:18.394Z,101639.91
2023-05-06T04:21:49.810Z,101638.31
2023-05-06T04:22:21.278Z,101646.50
2023-05-06T04:22:52.656Z,101647.28
2023-05-06T04:23:24.139Z,101641.84
2023-05-06T04:23:55.796Z,101644.22
2023-05-06T04:24:31.133Z,101641.84
2023-05-06T04:25:02.671Z,101637.97
2023-05-06T04:25:36.003Z,101638.75
2023-05-06T04:26:07.439Z,101643.06
2023-05-06T04:26:38.976Z,101641.47
2023-05-06T04:27:10.714Z,101637.63
2023-05-06T04:27:42.181Z,101639.09
2023-05-06T04:28:13.603Z,101640.69
2023-05-06T04:28:44.968Z,101642.63
2023-05-06T04:29:16.383Z,101649.66
2023-05-06T04:29:47.785Z,101646.94
2023-05-06T04:30:20.970Z,101642.28
2023-05-06T04:30:52.833Z,101647.72
2023-05-06T04:31:24.280Z,101643.06
2023-05-06T04:31:55.914Z,101643.06
2023-05-06T04:32:27.754Z,101643.84
2023-05-06T04:32:59.246Z,101652.47
2023-05-06T04:33:31.244Z,101655.53
2023-05-06T04:34:02.824Z,101653.59
2023-05-06T04:34:36.252Z,101648.94
2023-05-06T04:35:08.716Z,101648.16
2023-05-06T04:35:40.983Z,101652.47
2023-05-06T04:36:13.385Z,101653.59
2023-05-06T04:36:44.866Z,101652.47
2023-05-06T04:37:16.366Z,101649.75
2023-05-06T04:37:48.888Z,101649.75
2023-05-06T04:38:21.775Z,101652.47
2023-05-06T04:38:53.210Z,101650.88
2023-05-06T04:39:24.965Z,101658.72
2023-05-06T04:39:57.067Z,101654.41
2023-05-06T04:40:28.537Z,101657.13
2023-05-06T04:41:00.192Z,101657.13
2023-05-06T04:41:31.584Z,101661.44
2023-05-06T04:42:03.389Z,101659.06
2023-05-06T04:42:34.848Z,101659.06
2023-05-06T04:43:06.234Z,101665.31
2023-05-06T04:43:37.719Z,101662.56
2023-05-06T04:44:09.311Z,101665.75
2023-05-06T04:44:41.944Z,101660.28
2023-05-06T04:45:13.479Z,101665.75
2023-05-06T04:45:51.656Z,101673.91
2023-05-06T04:46:23.858Z,101665.38
2023-05-06T04:46:55.441Z,101668.91
2023-05-06T04:47:27.048Z,101672.44
2023-05-06T04:47:58.472Z,101680.22
2023-05-06T04:48:29.839Z,101668.19
2023-05-06T04:49:01.413Z,101666.59
2023-05-06T04:49:33.180Z,101668.19
2023-05-06T04:50:04.986Z,101668.19
2023-05-06T04:50:36.462Z,101668.97
2023-05-06T04:51:09.224Z,101679.88
2023-05-06T04:51:40.822Z,101673.28
2023-05-06T04:52:12.450Z,101683.38
2023-05-06T04:52:44.625Z,101676.34
2023-05-06T04:53:16.899Z,101669.75
2023-05-06T04:53:48.456Z,101674.84
2023-05-06T04:54:19.824Z,101674.84
2023-05-06T04:54:51.337Z,101668.28
2023-05-06T04:55:23.376Z,101677.22
2023-05-06T04:55:55.604Z,101672.56
2023-05-06T04:56:27.004Z,101679.59
2023-05-06T04:56:58.458Z,101673.38
2023-05-06T04:57:31.050Z,101676.09
2023-05-06T04:58:02.442Z,101677.69
2023-05-06T04:58:34.416Z,101678.81
2023-05-06T04:59:05.749Z,101685.84
2023-05-06T04:59:37.364Z,101674.94
2023-05-06T05:00:10.684Z,101684.72
2023-05-06T05:00:42.423Z,101677.69
2023-05-06T05:01:14.082Z,101680.41
2023-05-06T05:01:46.208Z,101681.19
2023-05-06T05:02:17.729Z,101685.50
2023-05-06T05:02:49.273Z,101681.97
2023-05-06T05:03:20.851Z,101680.84
2023-05-06T05:03:52.313Z,101697.97
2023-05-06T05:04:24.012Z,101693.31
2023-05-06T05:04:55.506Z,101686.72
2023-05-06T05:05:27.619Z,101690.25
2023-05-06T05:05:59.029Z,101688.31
2023-05-06T05:06:32.163Z,101687.97
2023-05-06T05:07:03.594Z,101694.22
2023-05-06T05:07:34.944Z,101694.22
2023-05-06T05:08:06.584Z,101690.69
2023-05-06T05:08:38.007Z,101693.06
2023-05-06T05:09:10.655Z,101698.50
2023-05-06T05:09:42.351Z,101686.47
2023-05-06T05:10:13.895Z,101693.53
2023-05-06T05:10:45.489Z,101695.47
2023-05-06T05:11:17.056Z,101696.25
2023-05-06T05:11:48.429Z,101696.25
2023-05-06T05:12:19.835Z,101697.81
2023-05-06T05:12:51.562Z,101709.50
2023-05-06T05:13:23.003Z,101705.63
2023-05-06T05:13:56.703Z,101698.25
2023-05-06T05:14:29.050Z,101699.84
2023-05-06T05:15:00.476Z,101704.94
2023-05-06T05:15:31.902Z,101698.34
2023-05-06T05:16:03.387Z,101701.06
2023-05-06T05:16:34.909Z,101697.19
2023-05-06T05:17:06.609Z,101708.53
2023-05-06T05:17:38.466Z,101705.47
2023-05-06T05:18:10.000Z,101701.59
2023-05-06T05:18:41.447Z,101708.63
2023-05-06T05:19:12.904Z,101707.50
2023-05-06T05:19:44.274Z,101702.84
2023-05-06T05:20:15.703Z,101705.22
2023-05-06T05:20:47.114Z,101713.81
2023-05-06T05:21:18.553Z,101696.66
2023-05-06T05:21:50.159Z,101709.16
2023-05-06T05:22:21.503Z,101708.78
2023-05-06T05:22:52.870Z,101710.38
2023-05-06T05:23:24.223Z,101709.66
2023-05-06T05:23:55.657Z,101705.78
2023-05-06T05:24:27.089Z,101701.91
2023-05-06T05:24:58.559Z,101699.63
2023-05-06T05:25:30.010Z,101703.59
2023-05-06T05:26:02.086Z,101699.72
2023-05-06T05:26:33.603Z,101700.16
2023-05-06T05:27:05.079Z,101704.09
2023-05-06T05:27:36.534Z,101701.81
2023-05-06T05:28:07.928Z,101704.16
2023-05-06T05:28:39.276Z,101701.09
2023-05-06T05:29:11.143Z,101701.16
2023-05-06T05:29:42.602Z,101698.09
2023-05-06T05:30:14.164Z,101695.78
2023-05-06T05:30:45.732Z,101700.09
2023-05-06T05:31:17.229Z,101698.59
2023-05-06T05:31:48.855Z,101698.25
2023-05-06T05:32:21.768Z,101700.63
2023-05-06T05:32:53.554Z,101706.13
2023-05-06T05:33:25.139Z,101704.97
2023-05-06T05:33:57.163Z,101701.56
2023-05-06T05:34:29.418Z,101697.69
2023-05-06T05:35:00.817Z,101707.09
2023-05-06T05:35:32.371Z,101704.00
2023-05-06T05:36:04.706Z,101699.78
2023-05-06T05:36:36.191Z,101698.28
2023-05-06T05:37:07.665Z,101697.56
2023-05-06T05:37:39.186Z,101707.31
2023-05-06T05:38:12.900Z,101697.16
2023-05-06T05:38:44.514Z,101698.75
2023-05-06T05:39:16.099Z,101694.09
2023-05-06T05:39:47.539Z,101695.66
2023-05-06T05:40:18.928Z,101691.78
2023-05-06T05:40:50.348Z,101698.03
2023-05-06T05:41:21.780Z,101693.38
2023-05-06T05:41:53.175Z,101686.34
2023-05-06T05:42:24.542Z,101692.22
2023-05-06T05:42:56.007Z,101701.19
2023-05-06T05:43:27.373Z,101690.72
2023-05-06T05:43:58.796Z,101697.75
2023-05-06T05:44:30.408Z,101698.97
2023-05-06T05:45:01.843Z,101698.97
2023-05-06T05:45:33.320Z,101698.63
2023-05-06T05:46:04.809Z,101703.72
2023-05-06T05:46:36.567Z,101697.91
2023-05-06T05:47:08.167Z,101698.72
2023-05-06T05:47:39.672Z,101702.22
2023-05-06T05:48:11.124Z,101694.81
2023-05-06T05:48:43.591Z,101695.63
2023-05-06T05:49:15.188Z,101697.59
2023-05-06T05:49:46.813Z,101695.66
2023-05-06T05:50:18.604Z,101705.44
2023-05-06T05:50:49.938Z,101706.66
2023-05-06T05:51:22.023Z,101702.34
2023-05-06T05:51:53.386Z,101705.88
2023-05-06T05:52:24.869Z,101697.69
2023-05-06T05:52:56.373Z,101703.13
2023-05-06T05:53:28.078Z,101700.84
2023-05-06T05:53:59.751Z,101703.22
2023-05-06T05:54:31.135Z,101704.00
2023-05-06T05:55:02.579Z,101704.00
2023-05-06T05:55:33.937Z,101700.13
2023-05-06T05:56:05.799Z,101705.22
2023-05-06T05:56:37.349Z,101703.28
2023-05-06T05:57:08.865Z,101711.13
2023-05-06T05:57:40.289Z,101701.00
2023-05-06T05:58:12.028Z,101701.78
2023-05-06T05:58:43.690Z,101704.94
2023-05-06T05:59:15.147Z,101701.84
2023-05-06T05:59:46.568Z,101702.63
2023-05-06T06:00:18.374Z,101699.16
2023-05-06T06:00:49.869Z,101701.53
2023-05-06T06:01:21.471Z,101697.22
2023-05-06T06:01:53.066Z,101707.00
2023-05-06T06:02:24.640Z,101698.44
2023-05-06T06:02:56.262Z,101701.19
2023-05-06T06:03:28.036Z,101701.97
2023-05-06T06:03:59.959Z,101706.28
2023-05-06T06:04:31.514Z,101705.91
2023-05-06T06:05:03.428Z,101704.41
2023-05-06T06:05:34.848Z,101707.16
2023-05-06T06:06:06.597Z,101707.16
2023-05-06T06:06:38.039Z,101707.16
2023-05-06T06:07:09.779Z,101711.81
2023-05-06T06:07:41.628Z,101703.25
2023-05-06T06:08:13.549Z,101708.72
2023-05-06T06:08:45.042Z,101707.56
2023-05-06T06:09:17.168Z,101707.22
2023-05-06T06:09:48.885Z,101705.28
2023-05-06T06:10:20.231Z,101709.59
2023-05-06T06:10:51.575Z,101703.75
2023-05-06T06:11:25.290Z,101704.56